Observations for NAPLES CAPODICHINO, Italy (LIRN)

LIRN 242120Z 07013G23KT 9999 FEW040 SCT060 20/12 Q1020 NOSIG
LIRN 242050Z 07012G24KT 9999 FEW040 SCT060 21/12 Q1019 NOSIG
LIRN 242020Z 07013G25KT 9999 FEW040 SCT060 21/13 Q1019 NOSIG
LIRN 241950Z 08011KT 050V120 9999 FEW040 SCT060 22/13 Q1018 NOSIG   
LIRN 241920Z 07010G20KT 030V100 9999 FEW040 SCT060 22/14 Q1018 NOSIG
LIRN 241850Z 09010KT 9999 FEW040 SCT060 23/15 Q1017 NOSIG   
LIRN 241820Z 09010KT 060V120 9999 FEW040 SCT060 24/16 Q1017 NOSIG   
LIRN 241750Z 10007KT 060V150 9999 FEW040 SCT060 25/17 Q1016 NOSIG   
LIRN 241720Z VRB02KT 9999 FEW040 SCT060 25/20 Q1015 NOSIG   
LIRN 241650Z 19003KT 160V230 9999 FEW040 SCT060 25/20 Q1015 NOSIG   
LIRN 241620Z 18004KT 9999 FEW040 26/20 Q1015 NOSIG  
LIRN 241550Z 19005KT 9999 FEW040 26/20 Q1014 NOSIG  
LIRN 241520Z 18005KT 150V210 9999 FEW040 27/20 Q1014 NOSIG  
LIRN 241450Z 20004KT 150V240 9999 SCT040 28/19 Q1014 NOSIG  
LIRN 241420Z 20005KT 160V240 9999 SCT040 27/20 Q1014 NOSIG  
LIRN 241350Z 20005KT 170V240 9999 SCT040 27/20 Q1014 NOSIG  
LIRN 241320Z 19006KT 130V230 9999 SCT040 27/20 Q1015 NOSIG  
LIRN 241250Z 19006KT 140V210 9999 FEW030 SCT055 28/20 Q1015 NOSIG   
LIRN 241220Z 17005KT 120V210 9999 FEW030 SCT055 28/20 Q1015 NOSIG   
LIRN 241150Z 21007KT 180V250 9999 FEW030 SCT055 28/20 Q1015 NOSIG   
LIRN 241120Z 19007KT 160V230 9999 SCT025 SCT055 27/20 Q1015 NOSIG   
LIRN 241050Z 16006KT 9999 SCT025 SCT055 26/18 Q1015 NOSIG   
LIRN 241020Z 19005KT 150V250 9999 SCT025 SCT055 26/19 Q1015 NOSIG   
LIRN 240950Z 14003KT 080V190 9999 SCT025 BKN055 24/21 Q1015 NOSIG   
LIRN 240920Z 11003KT 010V170 7000 SCT015 BKN030 24/22 Q1015 NOSIG   
LIRN 240850Z VRB02KT 6000 -RA SCT010 BKN030 22/21 Q1015 RERA NOSIG  
LIRN 240820Z VRB02KT 5000 RA SCT010 BKN030 22/20 Q1016 NOSIG
LIRN 240750Z 01004KT 330V030 6000 RA SCT010 BKN030 22/20 Q1016 NOSIG
LIRN 240720Z 02005KT 340V050 8000 SCT015 BKN035 23/20 Q1015 NOSIG   
LIRN 240650Z VRB02KT 8000 SCT015 BKN035 24/20 Q1015 NOSIG   
LIRN 240620Z 00000KT 8000 SCT015 BKN040 24/19 Q1015 NOSIG   
LIRN 240550Z 00000KT 8000 SCT015 SCT030 22/19 Q1015 NOSIG   
LIRN 240520Z VRB02KT 9999 FEW020 SCT040 23/19 Q1015 NOSIG   
LIRN 240450Z VRB02KT 9999 FEW020 SCT040 23/19 Q1015 NOSIG   
LIRN 240420Z 26003KT 9999 FEW020 SCT040 23/19 Q1015 NOSIG   
LIRN 240350Z 25004KT 9999 FEW020 SCT040 22/19 Q1016 NOSIG   
LIRN 240320Z 27002KT 9999 FEW020 SCT040 22/19 Q1016 NOSIG   
LIRN 240250Z 27002KT 9999 FEW025 22/19 Q1016 NOSIG  
LIRN 240220Z VRB01KT 9999 FEW025 22/19 Q1016 NOSIG  
LIRN 240150Z VRB01KT 9999 FEW025 22/19 Q1016 NOSIG  
LIRN 240120Z 25003KT 9999 FEW025 22/19 Q1016 NOSIG  
LIRN 240050Z 26003KT 9999 FEW025 22/19 Q1017 NOSIG  
LIRN 240020Z 25002KT 9999 FEW025 22/19 Q1017 NOSIG  
LIRN 232350Z 18001KT 9999 SCT025 22/19 Q1017 NOSIG  
LIRN 232320Z 00000KT 9999 SCT025 22/19 Q1018 NOSIG  
LIRN 232250Z VRB01KT 9999 SCT025 23/19 Q1018 NOSIG  
LIRN 232220Z 00000KT 9999 SCT025 22/19 Q1018 NOSIG  
LIRN 232150Z VRB01KT 9999 FEW030 22/19 Q1018 NOSIG  
LIRN 232120Z VRB02KT 9999 FEW030 23/19 Q1018 NOSIG  
LIRN 232050Z 00000KT 9999 FEW030 23/19 Q1019 NOSIG